createdAt,value
2023-02-03T00:05:52.291Z,2.77
2023-02-03T00:11:45.671Z,2.20
2023-02-03T00:17:39.944Z,1.87
2023-02-03T00:23:34.463Z,2.37
2023-02-03T00:29:27.961Z,2.27
2023-02-03T00:35:22.847Z,2.50
2023-02-03T00:41:16.242Z,3.70
2023-02-03T00:47:09.279Z,3.30
2023-02-03T00:53:04.162Z,4.00
2023-02-03T00:58:57.139Z,4.27
2023-02-03T01:04:50.266Z,5.30
2023-02-03T01:10:45.097Z,5.43
2023-02-03T01:16:38.566Z,6.97
2023-02-03T01:22:31.658Z,7.27
2023-02-03T01:28:25.972Z,7.43
2023-02-03T01:34:19.626Z,7.47
2023-02-03T01:40:14.125Z,7.10
2023-02-03T01:46:26.014Z,7.40
2023-02-03T01:52:19.645Z,7.83
2023-02-03T01:58:16.624Z,6.70
2023-02-03T02:04:12.318Z,6.57
2023-02-03T02:10:06.793Z,6.63
2023-02-03T02:16:07.958Z,7.47
2023-02-03T02:22:11.433Z,7.53
2023-02-03T02:28:27.913Z,7.13
2023-02-03T02:34:29.800Z,6.87
2023-02-03T02:40:27.807Z,6.97
2023-02-03T02:46:26.498Z,6.40
2023-02-03T02:52:23.185Z,7.00
2023-02-03T02:58:20.549Z,6.20
2023-02-03T03:04:17.002Z,6.13
2023-02-03T03:10:18.195Z,6.67
2023-02-03T03:16:26.683Z,5.77
2023-02-03T03:22:23.855Z,4.77
2023-02-03T03:28:27.000Z,4.97
2023-02-03T03:34:20.643Z,4.93
2023-02-03T03:40:19.946Z,4.47
2023-02-03T03:46:18.077Z,3.83
2023-02-03T03:52:13.641Z,3.60
2023-02-03T03:58:11.778Z,3.83
2023-02-03T04:04:10.822Z,4.07
2023-02-03T04:10:05.830Z,3.50
2023-02-03T04:15:59.016Z,3.33
2023-02-03T04:21:53.964Z,3.60
2023-02-03T04:27:47.448Z,3.97
2023-02-03T04:33:40.523Z,3.43
2023-02-03T04:39:35.333Z,3.17
2023-02-03T04:45:28.446Z,3.83
2023-02-03T04:51:21.876Z,4.10
2023-02-03T04:57:16.787Z,2.90
2023-02-03T05:03:09.796Z,3.40
2023-02-03T05:09:03.320Z,4.30
2023-02-03T05:14:58.119Z,3.90
2023-02-03T05:20:51.587Z,4.57
2023-02-03T05:26:45.068Z,5.77
2023-02-03T05:32:39.963Z,6.67
2023-02-03T05:38:33.443Z,5.57
2023-02-03T05:44:28.611Z,5.70
2023-02-03T05:50:23.011Z,5.40
2023-02-03T05:56:18.283Z,5.70
2023-02-03T06:02:11.354Z,5.20
2023-02-03T06:08:06.494Z,4.70
2023-02-03T06:14:00.783Z,4.57
2023-02-03T06:19:53.882Z,4.10
2023-02-03T06:25:50.487Z,4.20
2023-02-03T06:31:44.051Z,3.57
2023-02-03T06:37:37.577Z,3.20
2023-02-03T06:43:32.393Z,3.90
2023-02-03T06:49:25.982Z,3.93
2023-02-03T06:55:19.163Z,3.87
2023-02-03T07:01:14.099Z,3.83
2023-02-03T07:07:07.218Z,3.77
2023-02-03T07:13:05.072Z,3.97
2023-02-03T07:19:00.485Z,4.10
2023-02-03T07:24:53.991Z,3.43
2023-02-03T07:30:49.459Z,3.10
2023-02-03T07:36:43.810Z,2.40
2023-02-03T07:42:37.020Z,2.70
2023-02-03T07:48:30.091Z,2.60
2023-02-03T07:54:24.889Z,2.83
2023-02-03T08:00:19.313Z,2.70
2023-02-03T08:06:12.409Z,2.70
2023-02-03T08:12:07.823Z,3.20
2023-02-03T08:18:01.243Z,2.00
2023-02-03T08:23:54.658Z,1.63
2023-02-03T08:29:50.271Z,2.20
2023-02-03T08:35:47.472Z,2.73
2023-02-03T08:41:40.870Z,3.10
2023-02-03T08:47:36.773Z,3.43
2023-02-03T08:53:29.857Z,3.80
2023-02-03T08:59:23.436Z,4.40
2023-02-03T09:05:18.589Z,4.93
2023-02-03T09:11:13.988Z,4.63
2023-02-03T09:17:08.745Z,4.30
2023-02-03T09:23:03.583Z,4.77
2023-02-03T09:28:56.973Z,4.57
2023-02-03T09:34:50.403Z,5.00
2023-02-03T09:40:45.653Z,6.33
2023-02-03T09:46:44.907Z,5.60
2023-02-03T09:52:40.283Z,5.03
2023-02-03T09:58:36.432Z,6.80
2023-02-03T10:04:35.559Z,6.03
2023-02-03T10:10:40.180Z,7.47
2023-02-03T10:16:48.489Z,7.60
2023-02-03T10:22:46.005Z,6.60
2023-02-03T10:28:46.708Z,9.03
2023-02-03T10:34:44.570Z,6.30
2023-02-03T10:40:38.442Z,7.80
2023-02-03T10:53:57.965Z,6.70
2023-02-03T10:59:51.003Z,5.13
2023-02-03T11:05:44.119Z,5.30
2023-02-03T11:11:41.586Z,6.73
2023-02-03T11:17:38.334Z,6.40
2023-02-03T11:23:31.819Z,6.40
2023-02-03T11:29:29.703Z,6.80
2023-02-03T11:35:25.778Z,5.80
2023-02-03T11:41:23.872Z,6.53
2023-02-03T11:47:20.185Z,5.33
2023-02-03T11:53:28.103Z,5.53
2023-02-03T11:59:44.208Z,5.17
2023-02-03T12:06:20.037Z,6.57
2023-02-03T12:12:47.030Z,5.50
2023-02-03T12:18:53.660Z,5.10
2023-02-03T12:24:58.875Z,5.30
2023-02-03T12:31:00.325Z,5.47
2023-02-03T12:36:59.234Z,4.90
2023-02-03T12:42:59.617Z,5.23
2023-02-03T12:48:59.240Z,5.23
2023-02-03T12:55:02.595Z,6.20
2023-02-03T13:01:02.191Z,5.60
2023-02-03T13:07:02.064Z,5.97
2023-02-03T13:12:58.650Z,6.00
2023-02-03T13:18:58.065Z,5.10
2023-02-03T13:24:56.996Z,6.40
2023-02-03T13:31:14.606Z,5.60
2023-02-03T13:37:59.250Z,4.60
2023-02-03T13:43:54.458Z,5.07
2023-02-03T13:49:54.040Z,5.60
2023-02-03T13:55:55.544Z,6.70
2023-02-03T14:01:49.432Z,5.00
2023-02-03T14:07:42.835Z,6.50
2023-02-03T14:13:37.188Z,6.60
2023-02-03T14:19:56.358Z,6.30
2023-02-03T14:25:52.291Z,5.70
2023-02-03T14:32:02.052Z,5.57
2023-02-03T14:37:58.794Z,4.83
2023-02-03T14:44:00.309Z,5.80
2023-02-03T14:50:11.111Z,5.30
2023-02-03T14:56:14.847Z,5.17
2023-02-03T15:02:15.900Z,6.83
2023-02-03T15:08:45.911Z,5.67
2023-02-03T15:14:38.960Z,5.03
2023-02-03T15:20:38.676Z,5.10
2023-02-03T15:26:33.491Z,4.40
2023-02-03T15:32:32.435Z,5.30
2023-02-03T15:38:30.691Z,5.40
2023-02-03T15:44:32.835Z,7.70
2023-02-03T15:50:34.282Z,5.63
2023-02-03T15:56:37.701Z,5.40
2023-02-03T16:02:35.701Z,6.20
2023-02-03T16:08:43.046Z,5.93
2023-02-03T16:14:38.010Z,6.17
2023-02-03T16:20:33.340Z,6.20
2023-02-03T16:26:27.858Z,5.30
2023-02-03T16:32:39.897Z,5.53
2023-02-03T16:38:51.730Z,5.20
2023-02-03T16:45:02.837Z,5.30
2023-02-03T16:50:58.189Z,5.50
2023-02-03T16:56:53.950Z,6.73
2023-02-03T17:02:46.945Z,6.27
2023-02-03T17:08:41.388Z,5.43
2023-02-03T17:14:35.887Z,5.03
2023-02-03T17:20:28.847Z,4.63
2023-02-03T17:26:22.309Z,5.53
2023-02-03T17:32:17.348Z,5.93
2023-02-03T17:38:11.218Z,6.87
2023-02-03T17:56:29.157Z,6.07
2023-02-03T18:02:22.752Z,4.20
2023-02-03T18:08:20.480Z,4.13
2023-02-03T18:14:18.011Z,5.03
2023-02-03T18:20:13.172Z,5.60
2023-02-03T18:26:10.335Z,5.47
2023-02-03T18:32:03.354Z,6.10
2023-02-03T18:37:56.883Z,5.90
2023-02-03T18:43:51.469Z,5.10
2023-02-03T18:49:44.494Z,6.33
2023-02-03T18:55:38.223Z,4.83
2023-02-03T19:01:33.269Z,5.67
2023-02-03T19:07:27.497Z,4.70
2023-02-03T19:13:21.017Z,3.70
2023-02-03T19:19:15.788Z,3.87
2023-02-03T19:25:09.526Z,3.60
2023-02-03T19:31:08.482Z,2.80
2023-02-03T19:37:03.506Z,2.40
2023-02-03T19:42:56.506Z,2.60
2023-02-03T19:48:49.833Z,2.70
2023-02-03T19:54:44.574Z,2.47
2023-02-03T20:00:38.168Z,2.70
2023-02-03T20:06:31.975Z,2.30
2023-02-03T20:12:26.683Z,2.40
2023-02-03T20:18:20.120Z,2.27
2023-02-03T20:24:13.938Z,1.83
2023-02-03T20:30:10.085Z,1.60
2023-02-03T20:36:03.499Z,1.80
2023-02-03T20:41:57.317Z,1.53
2023-02-03T20:47:52.569Z,1.60
2023-02-03T20:53:45.590Z,1.60
2023-02-03T20:59:39.072Z,1.50
2023-02-03T21:05:37.562Z,1.30
2023-02-03T21:11:31.440Z,1.60
2023-02-03T21:17:26.801Z,2.67
2023-02-03T21:23:23.277Z,1.53
2023-02-03T21:29:23.188Z,2.03
2023-02-03T21:35:26.032Z,2.10
2023-02-03T21:41:22.724Z,2.00
2023-02-03T21:47:20.604Z,1.80
2023-02-03T21:53:26.133Z,1.90
2023-02-03T21:59:22.762Z,1.40
2023-02-03T22:05:17.460Z,1.40
2023-02-03T22:11:11.643Z,1.93
2023-02-03T22:17:06.371Z,1.60
2023-02-03T22:22:59.273Z,1.60
2023-02-03T22:28:52.663Z,1.30
2023-02-03T22:34:47.593Z,1.30
2023-02-03T22:40:41.003Z,1.07
2023-02-03T22:46:34.420Z,1.27
2023-02-03T22:52:29.173Z,1.40
2023-02-03T22:58:22.562Z,1.00
2023-02-03T23:04:15.927Z,1.20
2023-02-03T23:10:13.748Z,1.30
2023-02-03T23:16:07.575Z,1.23
2023-02-03T23:22:00.948Z,1.10
2023-02-03T23:27:55.774Z,1.23
2023-02-03T23:34:03.109Z,1.00
2023-02-03T23:39:56.665Z,1.00
2023-02-03T23:45:51.224Z,1.07
2023-02-03T23:51:44.185Z,1.17
2023-02-03T23:57:37.598Z,1.10
